Terminal Aerodrome Forecast
Issued by NWS

Home | Current Version | Previous Version | Graphics & Text | Print | Product List | Glossary On
Versions: 1 2 3 4 5 6 7 8 9 10 11 12 13
000
FTUS43 KDDC 232335
TAFGCK
TAF
KGCK 232335Z 2400/2424 14010KT P6SM FEW250
     FM240600 18012KT P6SM SCT250
     FM241100 23013KT P6SM SCT250
     FM241700 29017G25KT P6SM FEW200
     FM242000 31020G30KT P6SM SCT150=

USA.gov is the U.S. government's official web portal to all federal, state and local government web resources and services.